createdAt,value
2019-02-23T00:01:05.741Z,33.30
2019-02-23T00:03:34.039Z,34.50
2019-02-23T00:06:02.321Z,27.33
2019-02-23T00:08:30.771Z,28.47
2019-02-23T00:10:59.111Z,22.30
2019-02-23T00:13:27.395Z,29.73
2019-02-23T00:15:55.886Z,28.60
2019-02-23T00:18:24.170Z,27.57
2019-02-23T00:20:52.517Z,26.35
2019-02-23T00:23:20.815Z,30.33
2019-02-23T00:25:49.168Z,26.70
2019-02-23T00:28:19.503Z,24.30
2019-02-23T00:30:47.831Z,28.73
2019-02-23T00:33:18.318Z,30.27
2019-02-23T00:35:46.732Z,27.20
2019-02-23T00:38:15.119Z,28.47
2019-02-23T00:40:44.296Z,29.27
2019-02-23T00:43:12.699Z,26.60
2019-02-23T00:45:41.066Z,24.73
2019-02-23T00:48:09.439Z,23.77
2019-02-23T00:50:37.790Z,24.93
2019-02-23T00:53:06.199Z,22.33
2019-02-23T00:55:34.479Z,30.40
2019-02-23T00:58:02.774Z,29.27
2019-02-23T01:00:31.223Z,24.07
2019-02-23T01:02:59.578Z,24.03
2019-02-23T01:05:27.916Z,26.87
2019-02-23T01:07:56.236Z,26.83
2019-02-23T01:10:24.587Z,26.60
2019-02-23T01:12:53.036Z,29.47
2019-02-23T01:15:21.364Z,20.20
2019-02-23T01:17:49.784Z,25.93
2019-02-23T01:20:18.263Z,23.97
2019-02-23T01:22:46.599Z,25.83
2019-02-23T01:25:16.499Z,24.87
2019-02-23T01:27:44.787Z,28.33
2019-02-23T01:30:13.200Z,27.20
2019-02-23T01:32:41.841Z,32.10
2019-02-23T01:35:10.208Z,26.80
2019-02-23T01:37:38.593Z,31.60
2019-02-23T01:40:11.869Z,29.23
2019-02-23T01:42:40.411Z,30.70
2019-02-23T01:45:09.019Z,21.83
2019-02-23T01:47:37.451Z,29.43
2019-02-23T01:50:06.977Z,31.47
2019-02-23T01:55:03.114Z,31.47
2019-02-23T01:57:31.383Z,31.73
2019-02-23T01:59:59.696Z,28.17
2019-02-23T02:02:27.987Z,34.10
2019-02-23T02:04:56.263Z,28.67
2019-02-23T02:07:24.569Z,32.37
2019-02-23T02:09:52.851Z,34.17
2019-02-23T02:12:21.683Z,30.93
2019-02-23T02:14:50.012Z,34.40
2019-02-23T02:17:18.447Z,28.97
2019-02-23T02:19:46.800Z,30.90
2019-02-23T02:22:15.107Z,31.63
2019-02-23T02:24:43.388Z,35.60
2019-02-23T02:27:11.747Z,34.60
2019-02-23T02:29:40.084Z,34.27
2019-02-23T02:32:08.431Z,33.50
2019-02-23T02:34:36.707Z,36.10
2019-02-23T02:37:05.029Z,36.20
2019-02-23T02:39:33.387Z,30.03
2019-02-23T02:42:01.664Z,31.27
2019-02-23T02:44:30.098Z,30.23
2019-02-23T02:46:58.382Z,31.63
2019-02-23T02:49:26.746Z,30.87
2019-02-23T02:51:55.078Z,31.77
2019-02-23T02:54:23.425Z,27.10
2019-02-23T02:56:51.782Z,31.17
2019-02-23T02:59:20.092Z,27.67
2019-02-23T03:01:48.444Z,26.73
2019-02-23T03:04:16.811Z,28.60
2019-02-23T03:06:47.024Z,30.50
2019-02-23T03:09:15.364Z,29.53
2019-02-23T03:11:43.643Z,34.97
2019-02-23T03:14:12.040Z,33.37
2019-02-23T03:16:40.392Z,28.17
2019-02-23T03:19:08.743Z,38.83
2019-02-23T03:21:37.075Z,31.33
2019-02-23T03:24:05.427Z,31.77
2019-02-23T03:26:33.717Z,33.33
2019-02-23T03:29:02.105Z,33.67
2019-02-23T03:31:30.458Z,33.73
2019-02-23T03:33:58.806Z,33.33
2019-02-23T03:36:27.202Z,38.20
2019-02-23T03:38:55.500Z,28.87
2019-02-23T03:41:23.859Z,38.53
2019-02-23T03:43:52.265Z,34.10
2019-02-23T03:46:20.811Z,37.07
2019-02-23T03:48:49.122Z,35.70
2019-02-23T03:51:17.444Z,34.67
2019-02-23T03:53:45.719Z,35.57
2019-02-23T03:56:14.002Z,35.00
2019-02-23T03:58:42.316Z,34.03
2019-02-23T04:01:10.668Z,34.40
2019-02-23T04:03:38.951Z,31.80
2019-02-23T04:06:07.851Z,34.97
2019-02-23T04:08:36.447Z,32.85
2019-02-23T04:11:04.807Z,36.00
2019-02-23T04:13:33.125Z,34.37
2019-02-23T04:16:01.423Z,33.10
2019-02-23T04:18:29.779Z,35.10
2019-02-23T04:21:01.684Z,38.77
2019-02-23T04:23:28.087Z,33.77
2019-02-23T04:25:56.379Z,39.43
2019-02-23T04:28:24.686Z,38.23
2019-02-23T04:30:52.976Z,38.00
2019-02-23T04:33:21.255Z,35.53
2019-02-23T04:35:49.572Z,30.63
2019-02-23T04:38:18.014Z,35.37
2019-02-23T04:40:46.316Z,35.43
2019-02-23T04:43:14.701Z,33.43
2019-02-23T04:45:42.976Z,34.17
2019-02-23T04:48:11.978Z,31.03
2019-02-23T04:50:40.452Z,34.05
2019-02-23T04:53:08.819Z,30.27
2019-02-23T04:55:37.174Z,36.60
2019-02-23T04:58:05.587Z,32.27
2019-02-23T05:00:33.884Z,36.03
2019-02-23T05:03:02.163Z,34.80
2019-02-23T05:05:30.495Z,33.93
2019-02-23T05:07:58.794Z,37.50
2019-02-23T05:10:27.179Z,36.87
2019-02-23T05:12:55.575Z,37.43
2019-02-23T05:15:23.852Z,41.17
2019-02-23T05:17:52.127Z,37.27
2019-02-23T05:20:20.472Z,38.03
2019-02-23T05:22:48.760Z,36.97
2019-02-23T05:25:17.107Z,40.57
2019-02-23T05:27:45.509Z,40.03
2019-02-23T05:30:13.856Z,39.50
2019-02-23T05:32:42.145Z,38.77
2019-02-23T05:35:14.073Z,45.63
2019-02-23T05:37:42.423Z,43.80
2019-02-23T05:40:12.056Z,38.30
2019-02-23T05:42:40.475Z,40.63
2019-02-23T05:45:10.590Z,40.07
2019-02-23T05:47:38.932Z,39.43
2019-02-23T05:50:09.534Z,42.53
2019-02-23T05:52:37.811Z,39.67
2019-02-23T05:55:06.177Z,44.87
2019-02-23T05:57:34.571Z,44.10
2019-02-23T06:00:02.999Z,50.83
2019-02-23T06:02:31.367Z,46.67
2019-02-23T06:04:59.759Z,52.23
2019-02-23T06:07:28.040Z,50.30
2019-02-23T06:09:56.311Z,46.07
2019-02-23T06:12:24.659Z,56.17
2019-02-23T06:14:52.936Z,47.80
2019-02-23T06:17:21.219Z,41.83
2019-02-23T06:19:49.534Z,48.77
2019-02-23T06:22:17.882Z,52.77
2019-02-23T06:24:46.171Z,48.83
2019-02-23T06:27:14.532Z,49.60
2019-02-23T06:29:43.003Z,47.87
2019-02-23T06:32:11.352Z,47.47
2019-02-23T06:34:39.955Z,45.70
2019-02-23T06:37:08.243Z,31.40
2019-02-23T06:39:36.526Z,47.40
2019-02-23T06:42:04.903Z,46.53
2019-02-23T06:44:33.179Z,43.50
2019-02-23T06:47:01.461Z,44.57
2019-02-23T06:49:29.766Z,42.67
2019-02-23T06:52:04.216Z,39.73
2019-02-23T06:54:28.110Z,43.20
2019-02-23T06:56:56.485Z,43.20
2019-02-23T06:59:24.762Z,39.77
2019-02-23T07:01:53.117Z,38.73
2019-02-23T07:04:21.445Z,39.85
2019-02-23T07:06:49.766Z,37.25
2019-02-23T07:09:18.054Z,38.90
2019-02-23T07:11:46.443Z,46.42
2019-02-23T07:14:14.723Z,43.02
2019-02-23T07:16:43.005Z,46.45
2019-02-23T07:19:11.404Z,41.35
2019-02-23T07:21:39.828Z,41.30
2019-02-23T07:24:08.119Z,42.85
2019-02-23T07:26:36.444Z,39.30
2019-02-23T07:29:04.798Z,42.53
2019-02-23T07:31:33.158Z,39.78
2019-02-23T07:34:01.479Z,40.08
2019-02-23T07:36:29.873Z,43.87
2019-02-23T07:38:59.792Z,39.95
2019-02-23T07:41:28.094Z,50.15
2019-02-23T07:43:57.286Z,42.38
2019-02-23T07:46:25.559Z,42.65
2019-02-23T07:48:53.891Z,40.50
2019-02-23T07:51:22.178Z,40.60
2019-02-23T07:53:51.388Z,36.83
2019-02-23T07:56:19.783Z,40.17
2019-02-23T07:58:48.073Z,39.25
2019-02-23T08:01:16.486Z,39.83
2019-02-23T08:03:44.796Z,37.80
2019-02-23T08:06:13.071Z,39.78
2019-02-23T08:08:41.399Z,39.90
2019-02-23T08:11:09.825Z,39.00
2019-02-23T08:13:40.544Z,37.65
2019-02-23T08:16:08.263Z,31.95
2019-02-23T08:18:36.726Z,38.98
2019-02-23T08:21:05.075Z,38.75
2019-02-23T08:23:33.431Z,34.00
2019-02-23T08:26:01.739Z,29.32
2019-02-23T08:28:30.063Z,25.15
2019-02-23T08:30:58.335Z,25.30
2019-02-23T08:33:26.660Z,27.75
2019-02-23T08:35:57.383Z,23.87
2019-02-23T08:38:25.731Z,26.55
2019-02-23T08:40:54.287Z,25.75
2019-02-23T08:43:24.614Z,33.05
2019-02-23T08:45:53.648Z,27.60
2019-02-23T08:48:21.951Z,25.60
2019-02-23T08:50:50.318Z,26.55
2019-02-23T08:53:18.677Z,28.35
2019-02-23T08:55:47.188Z,25.00
2019-02-23T08:58:15.539Z,33.28
2019-02-23T09:00:43.900Z,29.80
2019-02-23T09:03:12.203Z,28.32
2019-02-23T09:05:40.478Z,30.57
2019-02-23T09:08:10.384Z,29.72
2019-02-23T09:10:38.819Z,26.65
2019-02-23T09:13:08.867Z,32.53
2019-02-23T09:15:37.238Z,28.38
2019-02-23T09:18:05.643Z,26.05
2019-02-23T09:20:33.933Z,30.68
2019-02-23T09:23:02.222Z,22.62
2019-02-23T09:25:30.615Z,22.00
2019-02-23T09:27:58.895Z,22.22
2019-02-23T09:30:27.331Z,16.75
2019-02-23T09:32:55.643Z,22.25
2019-02-23T09:35:23.915Z,18.25
2019-02-23T09:37:52.202Z,21.10
2019-02-23T09:40:20.883Z,23.83
2019-02-23T09:42:49.186Z,22.77
2019-02-23T09:45:17.463Z,19.30
2019-02-23T09:47:45.834Z,24.47
2019-02-23T09:50:14.175Z,23.18
2019-02-23T09:52:42.444Z,24.00
2019-02-23T09:55:10.855Z,24.55
2019-02-23T09:57:39.500Z,19.67
2019-02-23T10:00:11.804Z,19.35
2019-02-23T10:02:40.513Z,22.40
2019-02-23T10:05:09.438Z,19.57
2019-02-23T10:07:37.793Z,21.97
2019-02-23T10:10:08.779Z,16.45
2019-02-23T10:12:37.126Z,17.73
2019-02-23T10:15:10.139Z,19.92
2019-02-23T10:17:38.455Z,18.48
2019-02-23T10:20:14.211Z,18.40
2019-02-23T10:22:42.631Z,18.50
2019-02-23T10:25:10.982Z,19.37
2019-02-23T10:27:39.334Z,18.17
2019-02-23T10:30:12.822Z,16.57
2019-02-23T10:32:41.179Z,17.27
2019-02-23T10:35:11.292Z,18.90
2019-02-23T10:37:39.612Z,17.23
2019-02-23T10:40:10.304Z,14.23
2019-02-23T10:42:38.595Z,15.98
2019-02-23T10:45:11.588Z,16.50
2019-02-23T10:47:39.951Z,19.15
2019-02-23T10:50:12.604Z,18.57
2019-02-23T10:52:40.930Z,18.07
2019-02-23T10:55:13.717Z,18.00
2019-02-23T10:57:42.072Z,15.80
2019-02-23T11:00:18.109Z,17.20
2019-02-23T11:02:46.491Z,15.03
2019-02-23T11:05:15.131Z,17.77
2019-02-23T11:07:43.452Z,16.23
2019-02-23T11:10:11.831Z,20.48
2019-02-23T11:12:40.189Z,20.35
2019-02-23T11:15:16.641Z,19.70
2019-02-23T11:17:44.984Z,20.50
2019-02-23T11:20:13.336Z,20.10
2019-02-23T11:22:41.718Z,18.92
2019-02-23T11:25:11.767Z,21.30
2019-02-23T11:27:40.122Z,23.85
2019-02-23T11:30:13.952Z,19.48
2019-02-23T11:32:42.377Z,22.20
2019-02-23T11:35:17.342Z,19.62
2019-02-23T11:37:45.502Z,20.48
2019-02-23T11:40:15.183Z,17.95
2019-02-23T11:45:11.873Z,17.20
2019-02-23T11:47:40.224Z,18.57
2019-02-23T11:50:10.130Z,20.30
2019-02-23T11:52:39.489Z,24.90
2019-02-23T11:55:07.996Z,21.90
2019-02-23T11:57:36.345Z,23.70
2019-02-23T12:00:07.690Z,14.85
2019-02-23T12:02:36.346Z,19.73
2019-02-23T12:05:04.800Z,19.62
2019-02-23T12:07:33.248Z,18.65
2019-02-23T12:10:01.694Z,23.05
2019-02-23T12:12:30.111Z,22.82
2019-02-23T12:14:58.510Z,19.42
2019-02-23T12:17:26.860Z,27.42
2019-02-23T12:19:55.434Z,23.32
2019-02-23T12:22:23.857Z,24.45
2019-02-23T12:24:52.141Z,21.20
2019-02-23T12:27:23.581Z,19.70
2019-02-23T12:29:51.957Z,22.90
2019-02-23T12:32:20.375Z,22.70
2019-02-23T12:34:48.712Z,21.02
2019-02-23T12:37:17.017Z,20.62
2019-02-23T12:39:45.348Z,21.97
2019-02-23T12:42:13.703Z,20.20
2019-02-23T12:44:42.041Z,20.35
2019-02-23T12:47:10.324Z,21.55
2019-02-23T12:49:38.594Z,22.48
2019-02-23T12:52:06.899Z,21.60
2019-02-23T12:54:35.202Z,18.92
2019-02-23T12:57:03.480Z,21.05
2019-02-23T12:59:31.863Z,22.67
2019-02-23T13:02:00.206Z,19.37
2019-02-23T13:04:28.739Z,24.18
2019-02-23T13:06:57.124Z,20.17
2019-02-23T13:09:28.017Z,19.87
2019-02-23T13:12:08.142Z,21.07
2019-02-23T13:14:43.196Z,21.70
2019-02-23T13:17:36.175Z,21.77
2019-02-23T13:20:07.900Z,21.02
2019-02-23T13:22:45.695Z,21.97
2019-02-23T13:25:26.513Z,20.15
2019-02-23T13:28:18.080Z,22.70
2019-02-23T13:30:52.624Z,20.72
2019-02-23T13:33:33.699Z,21.97
2019-02-23T13:36:13.891Z,20.72
2019-02-23T13:39:14.404Z,20.48
2019-02-23T13:41:49.171Z,22.85
2019-02-23T13:44:42.140Z,21.42
2019-02-23T13:47:36.732Z,22.70
2019-02-23T13:50:18.951Z,24.18
2019-02-23T13:52:56.070Z,23.12
2019-02-23T13:56:01.147Z,26.93
2019-02-23T13:58:32.735Z,21.25
2019-02-23T14:01:16.296Z,21.40
2019-02-23T14:04:11.586Z,22.60
2019-02-23T14:07:06.346Z,21.97
2019-02-23T14:09:55.024Z,20.95
2019-02-23T14:12:41.047Z,22.40
2019-02-23T14:15:15.395Z,26.02
2019-02-23T14:17:55.878Z,24.37
2019-02-23T14:20:48.767Z,28.70
2019-02-23T14:23:20.343Z,23.50
2019-02-23T14:25:51.901Z,23.20
2019-02-23T14:28:32.610Z,22.93
2019-02-23T14:31:13.086Z,22.62
2019-02-23T14:34:15.023Z,23.92
2019-02-23T14:36:52.588Z,21.62
2019-02-23T14:39:42.186Z,24.00
2019-02-23T14:44:54.600Z,23.20
2019-02-23T14:47:34.864Z,21.35
2019-02-23T14:50:33.595Z,22.37
2019-02-23T14:53:30.552Z,23.90
2019-02-23T14:56:07.875Z,30.02
2019-02-23T14:58:48.325Z,34.48
2019-02-23T15:01:38.135Z,30.72
2019-02-23T15:04:41.715Z,36.83
2019-02-23T15:07:25.548Z,31.50
2019-02-23T15:10:24.550Z,32.63
2019-02-23T15:13:21.555Z,30.27
2019-02-23T15:16:02.228Z,23.77
2019-02-23T15:18:43.135Z,22.70
2019-02-23T15:21:34.332Z,23.07
2019-02-23T15:24:15.134Z,20.92
2019-02-23T15:26:52.667Z,19.75
2019-02-23T15:29:32.897Z,25.92
2019-02-23T15:32:23.811Z,20.08
2019-02-23T15:35:10.437Z,27.37
2019-02-23T15:37:57.016Z,19.62
2019-02-23T15:40:30.408Z,19.70
2019-02-23T15:43:17.096Z,21.97
2019-02-23T15:45:57.703Z,19.65
2019-02-23T15:48:47.260Z,20.10
2019-02-23T15:51:16.043Z,17.42
2019-02-23T15:53:44.377Z,22.23
2019-02-23T15:56:12.753Z,20.80
2019-02-23T15:58:43.994Z,22.65
2019-02-23T16:01:12.372Z,20.75
2019-02-23T16:03:40.711Z,22.52
2019-02-23T16:06:09.029Z,21.77
2019-02-23T16:08:37.652Z,20.15
2019-02-23T16:11:06.012Z,20.95
2019-02-23T16:13:34.535Z,19.20
2019-02-23T16:16:02.992Z,27.90
2019-02-23T16:18:31.404Z,27.90
2019-02-23T16:20:59.727Z,28.83
2019-02-23T16:23:35.338Z,28.90
2019-02-23T16:25:58.127Z,28.95
2019-02-23T16:28:26.470Z,32.42
2019-02-23T16:30:54.726Z,36.42
2019-02-23T16:33:23.003Z,27.90
2019-02-23T16:35:52.947Z,25.97
2019-02-23T16:38:22.524Z,30.37
2019-02-23T16:43:19.019Z,34.38
2019-02-23T16:45:47.610Z,34.30
2019-02-23T16:48:16.024Z,37.88
2019-02-23T16:50:44.427Z,37.80
2019-02-23T16:53:12.856Z,35.83
2019-02-23T16:55:51.411Z,37.83
2019-02-23T16:58:11.522Z,35.03
2019-02-23T17:00:39.872Z,33.58
2019-02-23T17:03:08.229Z,30.55
2019-02-23T17:05:36.615Z,34.67
2019-02-23T17:08:04.887Z,35.20
2019-02-23T17:10:33.483Z,41.50
2019-02-23T17:13:01.801Z,41.92
2019-02-23T17:15:30.158Z,41.85
2019-02-23T17:17:58.515Z,45.60
2019-02-23T17:20:28.095Z,46.13
2019-02-23T17:22:57.813Z,45.12
2019-02-23T17:25:27.724Z,44.83
2019-02-23T17:27:56.044Z,47.75
2019-02-23T17:30:28.768Z,41.53
2019-02-23T17:32:57.165Z,43.52
2019-02-23T17:35:25.554Z,44.83
2019-02-23T17:37:53.860Z,39.83
2019-02-23T17:40:22.609Z,45.70
2019-02-23T17:42:51.010Z,37.90
2019-02-23T17:45:19.605Z,40.15
2019-02-23T17:47:47.951Z,34.30
2019-02-23T17:50:17.589Z,40.92
2019-02-23T17:55:13.662Z,32.20
2019-02-23T17:57:41.979Z,32.28
2019-02-23T18:00:13.191Z,35.43
2019-02-23T18:02:41.546Z,44.05
2019-02-23T18:05:13.088Z,46.50
2019-02-23T18:07:42.898Z,40.70
2019-02-23T18:12:39.179Z,40.88
2019-02-23T18:15:12.049Z,44.30
2019-02-23T18:17:42.417Z,37.98
2019-02-23T18:20:12.659Z,36.73
2019-02-23T18:22:40.935Z,40.60
2019-02-23T18:25:09.615Z,44.20
2019-02-23T18:27:37.991Z,43.35
2019-02-23T18:30:11.432Z,41.73
2019-02-23T18:32:40.720Z,44.38
2019-02-23T18:37:37.133Z,46.25
2019-02-23T18:40:07.310Z,40.52
2019-02-23T18:42:35.620Z,39.20
2019-02-23T18:45:05.215Z,40.25
2019-02-23T18:47:35.194Z,42.70
2019-02-23T18:50:04.112Z,40.12
2019-02-23T18:52:32.457Z,35.70
2019-02-23T18:55:00.734Z,42.60
2019-02-23T18:57:29.229Z,42.45
2019-02-23T18:59:57.509Z,40.40
2019-02-23T19:02:25.790Z,54.42
2019-02-23T19:04:54.131Z,63.98
2019-02-23T19:07:22.434Z,55.77
2019-02-23T19:09:50.785Z,64.17
2019-02-23T19:12:19.099Z,56.58
2019-02-23T19:14:47.879Z,66.40
2019-02-23T19:17:16.155Z,68.87
2019-02-23T19:19:44.503Z,68.55
2019-02-23T19:22:12.910Z,55.60
2019-02-23T19:24:41.194Z,61.92
2019-02-23T19:27:09.596Z,52.30
2019-02-23T19:29:39.513Z,40.15
2019-02-23T19:32:07.791Z,41.73
2019-02-23T19:34:36.106Z,46.28
2019-02-23T19:37:04.467Z,51.13
2019-02-23T19:39:32.822Z,45.48
2019-02-23T19:42:01.251Z,53.20
2019-02-23T19:44:29.713Z,53.78
2019-02-23T19:46:58.006Z,55.20
2019-02-23T19:49:26.387Z,45.78
2019-02-23T19:51:56.577Z,57.75
2019-02-23T19:54:24.695Z,62.13
2019-02-23T19:56:53.121Z,56.98
2019-02-23T19:59:21.510Z,50.75
2019-02-23T20:01:49.856Z,52.95
2019-02-23T20:04:18.207Z,55.28
2019-02-23T20:06:46.523Z,58.40
2019-02-23T20:09:14.806Z,60.40
2019-02-23T20:11:44.160Z,64.70
2019-02-23T20:14:12.564Z,58.65
2019-02-23T20:16:42.835Z,59.80
2019-02-23T20:19:11.242Z,59.25
2019-02-23T20:21:42.120Z,65.03
2019-02-23T20:24:10.483Z,62.20
2019-02-23T20:26:42.162Z,58.45
2019-02-23T20:29:10.576Z,72.10
2019-02-23T20:31:39.186Z,64.45
2019-02-23T20:34:07.538Z,72.15
2019-02-23T20:36:35.815Z,74.00
2019-02-23T20:39:04.949Z,74.80
2019-02-23T20:41:33.341Z,80.50
2019-02-23T20:44:01.637Z,70.42
2019-02-23T20:46:30.025Z,82.00
2019-02-23T20:48:58.497Z,86.02
2019-02-23T20:51:26.854Z,73.57
2019-02-23T20:53:55.208Z,75.75
2019-02-23T20:56:23.683Z,68.60
2019-02-23T20:58:52.131Z,74.70
2019-02-23T21:01:20.455Z,77.50
2019-02-23T21:03:48.986Z,72.95
2019-02-23T21:06:17.299Z,65.60
2019-02-23T21:08:45.654Z,69.75
2019-02-23T21:11:14.053Z,68.67
2019-02-23T21:13:44.148Z,63.87
2019-02-23T21:16:12.552Z,60.00
2019-02-23T21:18:59.821Z,63.52
2019-02-23T21:21:28.170Z,59.03
2019-02-23T21:23:59.612Z,57.73
2019-02-23T21:26:27.958Z,59.58
2019-02-23T21:28:56.275Z,58.00
2019-02-23T21:31:26.271Z,66.47
2019-02-23T21:33:57.574Z,68.12
2019-02-23T21:39:15.859Z,66.50
2019-02-23T21:41:46.964Z,80.53
2019-02-23T21:44:15.479Z,87.80
2019-02-23T21:46:43.864Z,93.92
2019-02-23T21:49:15.283Z,102.92
2019-02-23T21:51:45.207Z,111.83
2019-02-23T21:54:13.621Z,117.37
2019-02-23T21:56:50.348Z,120.35
2019-02-23T21:59:27.228Z,126.07
2019-02-23T22:01:59.059Z,128.23
2019-02-23T22:04:29.051Z,144.60
2019-02-23T22:06:59.165Z,140.85
2019-02-23T22:09:32.325Z,133.27
2019-02-23T22:12:00.695Z,114.32
2019-02-23T22:14:29.003Z,112.83
2019-02-23T22:16:57.336Z,102.87
2019-02-23T22:19:25.935Z,121.45
2019-02-23T22:21:57.020Z,112.68
2019-02-23T22:24:25.518Z,130.82
2019-02-23T22:26:53.941Z,139.88
2019-02-23T22:29:22.322Z,130.57
2019-02-23T22:32:10.167Z,147.02
2019-02-23T22:34:38.729Z,154.65
2019-02-23T22:37:08.416Z,155.03
2019-02-23T22:42:04.376Z,172.80
2019-02-23T22:44:32.728Z,186.88
2019-02-23T22:47:01.060Z,182.80
2019-02-23T22:49:29.420Z,178.75
2019-02-23T22:51:57.897Z,171.25
2019-02-23T22:54:26.302Z,177.50
2019-02-23T22:56:55.145Z,185.63
2019-02-23T22:59:23.503Z,166.57
2019-02-23T23:01:51.860Z,171.70
2019-02-23T23:04:20.223Z,197.82
2019-02-23T23:06:48.720Z,185.40
2019-02-23T23:09:18.259Z,191.98
2019-02-23T23:11:46.542Z,184.72
2019-02-23T23:14:14.919Z,183.85
2019-02-23T23:16:43.304Z,170.47
2019-02-23T23:19:11.662Z,162.77
2019-02-23T23:21:40.099Z,164.03
2019-02-23T23:24:08.435Z,169.55
2019-02-23T23:26:39.899Z,186.95
2019-02-23T23:29:08.188Z,192.10
2019-02-23T23:31:36.541Z,189.05
2019-02-23T23:34:04.867Z,194.75
2019-02-23T23:36:33.236Z,175.30
2019-02-23T23:39:01.668Z,174.45
2019-02-23T23:41:29.991Z,172.37
2019-02-23T23:43:58.275Z,178.20
2019-02-23T23:46:26.664Z,193.78
2019-02-23T23:48:54.943Z,194.60
2019-02-23T23:51:24.935Z,184.13
2019-02-23T23:53:53.258Z,179.00
2019-02-23T23:56:21.618Z,165.10
2019-02-23T23:58:49.971Z,164.45
